createdAt,value
2018-03-22T00:01:45.117Z,14.57
2018-03-22T00:04:13.491Z,13.93
2018-03-22T00:06:41.890Z,13.70
2018-03-22T00:09:10.923Z,14.67
2018-03-22T00:11:38.878Z,14.43
2018-03-22T00:14:07.371Z,14.00
2018-03-22T00:16:35.034Z,14.67
2018-03-22T00:19:02.648Z,14.10
2018-03-22T00:21:30.196Z,14.17
2018-03-22T00:23:57.756Z,15.10
2018-03-22T00:26:27.448Z,15.23
2018-03-22T00:28:55.921Z,14.43
2018-03-22T00:31:47.065Z,14.77
2018-03-22T00:34:15.131Z,14.47
2018-03-22T00:36:44.606Z,15.33
2018-03-22T00:39:17.502Z,17.73
2018-03-22T00:41:45.098Z,16.30
2018-03-22T00:44:13.396Z,17.33
2018-03-22T00:46:41.353Z,16.60
2018-03-22T00:49:09.702Z,16.47
2018-03-22T00:51:37.710Z,17.03
2018-03-22T00:54:05.673Z,17.00
2018-03-22T00:56:33.162Z,16.53
2018-03-22T00:59:00.689Z,16.47
2018-03-22T01:01:29.013Z,18.10
2018-03-22T01:03:56.545Z,17.77
2018-03-22T01:06:24.500Z,16.70
2018-03-22T01:08:52.105Z,18.23
2018-03-22T01:11:19.707Z,19.90
2018-03-22T01:13:47.270Z,18.50
2018-03-22T01:16:14.803Z,17.07
2018-03-22T01:18:42.351Z,18.00
2018-03-22T01:21:10.282Z,17.03
2018-03-22T01:23:48.643Z,18.20
2018-03-22T01:26:25.576Z,18.40
2018-03-22T01:28:54.783Z,18.10
2018-03-22T01:31:22.407Z,17.20
2018-03-22T01:33:50.450Z,16.53
2018-03-22T01:36:18.382Z,17.20
2018-03-22T01:38:46.875Z,16.93
2018-03-22T01:41:15.041Z,16.77
2018-03-22T01:43:48.155Z,16.90
2018-03-22T01:46:17.695Z,17.57
2018-03-22T01:48:45.765Z,17.00
2018-03-22T01:51:13.422Z,17.80
2018-03-22T01:53:41.417Z,16.17
2018-03-22T01:56:08.990Z,18.47
2018-03-22T01:58:37.018Z,16.60
2018-03-22T02:01:04.556Z,17.17
2018-03-22T02:03:33.362Z,16.47
2018-03-22T02:06:01.043Z,15.83
2018-03-22T02:08:28.564Z,17.27
2018-03-22T02:10:56.107Z,15.67
2018-03-22T02:13:23.688Z,17.40
2018-03-22T02:15:59.010Z,18.00
2018-03-22T02:18:26.540Z,17.33
2018-03-22T02:20:54.103Z,18.20
2018-03-22T02:23:22.449Z,18.33
2018-03-22T02:25:50.086Z,18.80
2018-03-22T02:28:18.044Z,17.00
2018-03-22T02:30:45.594Z,16.40
2018-03-22T02:33:13.218Z,18.03
2018-03-22T02:35:40.842Z,16.30
2018-03-22T02:38:08.793Z,17.50
2018-03-22T02:40:36.351Z,16.40
2018-03-22T02:43:04.235Z,16.13
2018-03-22T02:45:32.126Z,16.90
2018-03-22T02:47:59.612Z,17.10
2018-03-22T02:50:27.492Z,16.90
2018-03-22T02:52:55.744Z,17.70
2018-03-22T02:55:23.282Z,15.63
2018-03-22T02:57:50.755Z,16.93
2018-03-22T03:00:19.030Z,15.73
2018-03-22T03:02:47.239Z,16.13
2018-03-22T03:05:15.457Z,16.43
2018-03-22T03:07:42.924Z,17.63
2018-03-22T03:10:10.780Z,16.47
2018-03-22T03:12:39.003Z,16.00
2018-03-22T03:15:06.471Z,16.10
2018-03-22T03:17:34.705Z,16.23
2018-03-22T03:20:02.916Z,16.23
2018-03-22T03:22:31.182Z,15.87
2018-03-22T03:24:58.702Z,17.40
2018-03-22T03:27:26.952Z,17.60
2018-03-22T03:29:54.452Z,15.90
2018-03-22T03:32:21.895Z,17.43
2018-03-22T03:35:18.533Z,18.73
2018-03-22T03:37:45.976Z,17.20
2018-03-22T03:40:13.863Z,17.10
2018-03-22T03:42:41.746Z,17.07
2018-03-22T03:45:09.190Z,17.40
2018-03-22T03:47:36.656Z,17.70
2018-03-22T03:50:04.120Z,17.47
2018-03-22T03:52:31.583Z,17.87
2018-03-22T03:54:59.856Z,17.70
2018-03-22T03:57:28.128Z,18.60
2018-03-22T03:59:55.593Z,17.93
2018-03-22T04:02:24.749Z,17.47
2018-03-22T04:04:52.893Z,18.53
2018-03-22T04:10:38.136Z,19.57
2018-03-22T04:13:05.596Z,19.27
2018-03-22T04:15:33.085Z,19.07
2018-03-22T04:18:00.544Z,18.13
2018-03-22T04:20:28.035Z,19.10
2018-03-22T04:22:55.475Z,19.97
2018-03-22T04:25:22.931Z,20.57
2018-03-22T04:30:45.056Z,19.37
2018-03-22T04:33:18.839Z,20.10
2018-03-22T04:35:46.387Z,20.03
2018-03-22T04:38:48.174Z,20.13
2018-03-22T04:44:13.752Z,20.30
2018-03-22T04:46:47.751Z,18.30
2018-03-22T04:49:15.205Z,20.00
2018-03-22T04:51:43.435Z,18.37
2018-03-22T04:54:10.984Z,19.60
2018-03-22T04:56:38.455Z,17.33
2018-03-22T04:59:05.895Z,16.60
2018-03-22T05:01:33.377Z,16.97
2018-03-22T05:04:00.804Z,18.73
2018-03-22T05:06:28.651Z,16.20
2018-03-22T05:08:56.103Z,17.83
2018-03-22T05:11:23.555Z,18.37
2018-03-22T05:13:57.960Z,15.50
2018-03-22T05:16:25.489Z,18.60
2018-03-22T05:19:16.592Z,15.77
2018-03-22T05:21:44.092Z,17.70
2018-03-22T05:24:12.309Z,16.50
2018-03-22T05:26:40.518Z,17.43
2018-03-22T05:29:09.021Z,15.40
2018-03-22T05:31:36.488Z,16.60
2018-03-22T05:34:03.998Z,16.93
2018-03-22T05:36:47.591Z,16.97
2018-03-22T05:39:15.162Z,16.53
2018-03-22T05:41:42.623Z,17.23
2018-03-22T05:44:10.836Z,17.10
2018-03-22T05:46:40.451Z,16.17
2018-03-22T05:49:08.742Z,16.90
2018-03-22T05:51:36.948Z,17.00
2018-03-22T05:54:05.339Z,16.93
2018-03-22T05:56:46.492Z,16.07
2018-03-22T05:59:14.707Z,19.20
2018-03-22T06:01:42.183Z,18.60
2018-03-22T06:04:09.651Z,18.10
2018-03-22T06:06:37.118Z,15.20
2018-03-22T06:09:17.632Z,16.90
2018-03-22T06:11:45.501Z,15.57
2018-03-22T06:14:12.971Z,17.57
2018-03-22T06:16:40.444Z,18.40
2018-03-22T06:19:08.283Z,18.27
2018-03-22T06:21:36.140Z,17.13
2018-03-22T06:24:04.375Z,17.50
2018-03-22T06:26:31.897Z,17.83
2018-03-22T06:29:00.132Z,19.43
2018-03-22T06:31:27.606Z,18.67
2018-03-22T06:33:55.444Z,18.10
2018-03-22T06:36:22.887Z,20.53
2018-03-22T06:38:51.105Z,20.80
2018-03-22T06:41:18.554Z,21.03
2018-03-22T06:43:46.428Z,20.47
2018-03-22T06:46:14.643Z,19.90
2018-03-22T06:48:42.493Z,20.83
2018-03-22T06:51:10.716Z,24.87
2018-03-22T06:53:38.234Z,24.60
2018-03-22T06:56:05.719Z,26.67
2018-03-22T06:58:33.234Z,28.60
2018-03-22T07:01:00.725Z,29.47
2018-03-22T07:03:29.009Z,29.40
2018-03-22T07:05:57.226Z,31.47
2018-03-22T07:08:25.442Z,22.07
2018-03-22T07:13:46.895Z,33.43
2018-03-22T07:16:14.337Z,35.07
2018-03-22T07:18:42.566Z,36.50
2018-03-22T07:21:10.847Z,35.60
2018-03-22T07:23:38.308Z,33.10
2018-03-22T07:26:05.923Z,36.27
2018-03-22T07:28:33.761Z,38.07
2018-03-22T07:31:01.975Z,35.83
2018-03-22T07:33:29.423Z,38.53
2018-03-22T07:35:56.911Z,39.97
2018-03-22T07:38:24.385Z,40.50
2018-03-22T07:40:59.498Z,39.23
2018-03-22T07:43:32.849Z,37.67
2018-03-22T07:46:00.351Z,40.97
2018-03-22T07:48:28.207Z,40.27
2018-03-22T07:50:55.651Z,39.70
2018-03-22T07:53:23.116Z,38.33
2018-03-22T07:56:10.800Z,39.40
2018-03-22T07:58:38.795Z,37.97
2018-03-22T08:01:07.023Z,35.20
2018-03-22T08:06:37.816Z,37.67
2018-03-22T08:09:17.432Z,36.83
2018-03-22T08:11:45.388Z,37.30
2018-03-22T08:14:13.635Z,35.50
2018-03-22T08:16:41.881Z,36.60
2018-03-22T08:19:09.730Z,35.03
2018-03-22T08:21:37.267Z,34.57
2018-03-22T08:24:08.658Z,37.07
2018-03-22T08:26:36.171Z,36.60
2018-03-22T08:29:03.654Z,37.57
2018-03-22T08:31:31.133Z,38.27
2018-03-22T08:33:58.580Z,35.90
2018-03-22T08:36:35.595Z,39.43
2018-03-22T08:39:04.603Z,37.73
2018-03-22T08:44:20.603Z,35.43
2018-03-22T08:46:48.051Z,39.73
2018-03-22T08:49:15.917Z,40.27
2018-03-22T08:51:44.151Z,40.53
2018-03-22T08:54:11.623Z,39.10
2018-03-22T08:56:39.078Z,36.73
2018-03-22T08:59:17.177Z,40.13
2018-03-22T09:01:45.038Z,39.20
2018-03-22T09:04:12.934Z,38.47
2018-03-22T09:09:46.802Z,38.10
2018-03-22T09:18:11.957Z,34.93
2018-03-22T09:20:39.428Z,30.07
2018-03-22T09:23:07.731Z,35.50
2018-03-22T09:28:33.641Z,25.07
2018-03-22T09:31:01.091Z,24.30
2018-03-22T09:33:28.567Z,24.90
2018-03-22T09:35:56.034Z,26.53
2018-03-22T09:38:23.488Z,23.20
2018-03-22T09:41:17.367Z,20.17
2018-03-22T09:43:45.621Z,17.87
2018-03-22T09:46:17.723Z,14.60
2018-03-22T09:48:45.214Z,16.60
2018-03-22T09:51:19.903Z,17.63
2018-03-22T09:53:50.740Z,14.60
2018-03-22T09:56:38.272Z,15.43
2018-03-22T09:59:05.716Z,12.80
2018-03-22T10:01:47.513Z,13.40
2018-03-22T10:04:15.508Z,11.73
2018-03-22T10:06:42.928Z,10.60
2018-03-22T10:09:10.367Z,10.47
2018-03-22T10:11:37.829Z,10.00
2018-03-22T10:14:05.295Z,9.67
2018-03-22T10:16:32.781Z,10.80
2018-03-22T10:19:00.219Z,11.83
2018-03-22T10:21:27.679Z,10.67
2018-03-22T10:23:55.148Z,12.00
2018-03-22T10:26:22.591Z,11.83
2018-03-22T10:28:50.842Z,11.20
2018-03-22T10:37:24.537Z,12.70
2018-03-22T10:42:55.188Z,9.00
2018-03-22T10:45:22.642Z,11.17
2018-03-22T10:47:50.096Z,10.40
2018-03-22T10:50:17.536Z,12.63
2018-03-22T10:52:49.004Z,9.23
2018-03-22T10:55:16.563Z,9.20
2018-03-22T10:57:44.412Z,7.20
2018-03-22T11:06:19.781Z,7.70
2018-03-22T11:08:47.987Z,9.47
2018-03-22T11:11:15.825Z,9.10
2018-03-22T11:13:49.821Z,7.40
2018-03-22T11:16:17.259Z,9.47
2018-03-22T11:18:44.707Z,8.67
2018-03-22T11:21:12.923Z,8.30
2018-03-22T11:23:48.176Z,8.20
2018-03-22T11:26:15.641Z,9.80
2018-03-22T11:28:43.114Z,9.90
2018-03-22T11:31:10.607Z,10.40
2018-03-22T11:33:38.479Z,10.37
2018-03-22T11:36:05.953Z,10.00
2018-03-22T11:38:33.423Z,10.10
2018-03-22T11:41:01.695Z,10.50
2018-03-22T11:43:29.154Z,9.87
2018-03-22T11:45:56.644Z,10.37
2018-03-22T11:48:24.112Z,10.93
2018-03-22T11:51:17.597Z,12.27
2018-03-22T11:53:45.117Z,12.20
2018-03-22T11:56:12.516Z,11.27
2018-03-22T11:58:39.983Z,13.10
2018-03-22T12:04:00.312Z,12.00
2018-03-22T12:06:27.780Z,11.20
2018-03-22T12:08:55.225Z,11.30
2018-03-22T12:11:23.440Z,12.17
2018-03-22T12:14:03.832Z,11.57
2018-03-22T12:16:31.701Z,9.37
2018-03-22T12:22:02.611Z,11.23
2018-03-22T12:24:30.547Z,12.23
2018-03-22T12:26:57.935Z,11.30
2018-03-22T12:29:36.195Z,9.60
2018-03-22T12:32:03.810Z,10.03
2018-03-22T12:34:31.259Z,11.27
2018-03-22T12:40:00.112Z,8.30
2018-03-22T12:42:27.577Z,9.10
2018-03-22T12:44:55.008Z,7.47
2018-03-22T12:47:22.856Z,7.47
2018-03-22T12:49:50.298Z,7.23
2018-03-22T12:52:20.542Z,7.47
2018-03-22T13:00:45.052Z,7.57
2018-03-22T13:03:13.274Z,7.27
2018-03-22T13:05:48.214Z,6.77
2018-03-22T13:08:15.692Z,6.80
2018-03-22T13:10:43.135Z,6.57
2018-03-22T13:21:07.155Z,7.20
2018-03-22T13:23:34.637Z,7.80
2018-03-22T13:28:36.000Z,8.20
2018-03-22T13:31:18.381Z,9.00
2018-03-22T13:33:46.729Z,8.20
2018-03-22T13:36:14.181Z,8.47
2018-03-22T13:38:41.622Z,10.23
2018-03-22T13:41:12.118Z,10.77
2018-03-22T13:43:47.584Z,11.33
2018-03-22T13:46:15.800Z,11.60
2018-03-22T13:48:44.036Z,11.47
2018-03-22T13:51:12.325Z,10.13
2018-03-22T13:53:39.781Z,13.83
2018-03-22T14:03:13.160Z,15.70
2018-03-22T14:05:40.783Z,16.10
2018-03-22T14:08:08.246Z,14.17
2018-03-22T14:10:47.841Z,15.63
2018-03-22T14:13:18.706Z,15.63
2018-03-22T14:35:35.511Z,19.17
2018-03-22T14:38:03.388Z,16.07
2018-03-22T14:40:30.843Z,16.93
2018-03-22T14:42:58.317Z,17.17
2018-03-22T14:45:25.766Z,16.70
2018-03-22T14:47:53.615Z,14.70
2018-03-22T14:50:21.087Z,16.23
2018-03-22T14:52:48.545Z,16.93
2018-03-22T14:55:16.010Z,16.20
2018-03-22T14:58:03.661Z,16.27
2018-03-22T15:00:31.169Z,18.40
2018-03-22T15:03:12.509Z,17.10
2018-03-22T15:05:46.881Z,16.17
2018-03-22T15:08:14.504Z,17.30
2018-03-22T15:10:42.726Z,18.20
2018-03-22T15:13:10.212Z,16.83
2018-03-22T15:15:37.680Z,14.53
2018-03-22T15:18:05.230Z,19.97
2018-03-22T15:20:33.078Z,18.37
2018-03-22T15:23:00.538Z,16.97
2018-03-22T15:28:40.882Z,17.80
2018-03-22T15:31:08.921Z,17.80
2018-03-22T15:33:36.392Z,18.20
2018-03-22T15:38:42.190Z,20.33
2018-03-22T15:41:10.398Z,19.93
2018-03-22T15:43:37.907Z,17.90
2018-03-22T15:46:11.408Z,17.30
2018-03-22T15:48:38.938Z,18.50
2018-03-22T15:51:06.684Z,16.80
2018-03-22T15:53:34.208Z,18.10
2018-03-22T15:56:01.674Z,17.13
2018-03-22T15:58:29.194Z,15.53
2018-03-22T16:00:56.667Z,17.17
2018-03-22T16:03:24.118Z,14.77
2018-03-22T16:05:51.862Z,16.13
2018-03-22T16:08:19.503Z,16.50
2018-03-22T16:10:49.165Z,16.00
2018-03-22T16:13:17.937Z,16.67
2018-03-22T16:15:45.396Z,16.87
2018-03-22T16:18:13.634Z,15.43
2018-03-22T16:20:41.099Z,16.47
2018-03-22T16:23:08.565Z,16.80
2018-03-22T16:25:36.028Z,17.13
2018-03-22T16:28:20.079Z,15.87
2018-03-22T16:30:47.608Z,17.67
2018-03-22T16:33:15.060Z,16.17
2018-03-22T16:35:42.558Z,16.60
2018-03-22T16:38:10.016Z,16.10
2018-03-22T16:40:46.776Z,17.60
2018-03-22T16:43:15.001Z,18.07
2018-03-22T16:45:42.852Z,18.90
2018-03-22T16:48:10.721Z,18.43
2018-03-22T16:50:38.210Z,19.80
2018-03-22T16:55:58.663Z,19.93
2018-03-22T16:58:29.446Z,19.43
2018-03-22T17:01:12.762Z,21.37
2018-03-22T17:03:40.276Z,20.40
2018-03-22T17:06:07.778Z,24.03
2018-03-22T17:08:36.043Z,24.13
2018-03-22T17:11:03.503Z,24.10
2018-03-22T17:13:31.739Z,27.97
2018-03-22T17:16:02.301Z,26.23
2018-03-22T17:18:50.499Z,31.50
2018-03-22T17:21:18.760Z,35.20
2018-03-22T17:23:49.633Z,30.30
2018-03-22T17:26:18.131Z,34.20
2018-03-22T17:28:49.911Z,27.30
2018-03-22T17:31:17.428Z,30.13
2018-03-22T17:33:48.197Z,29.93
2018-03-22T17:39:54.409Z,28.20
2018-03-22T17:42:21.873Z,27.23
2018-03-22T17:44:49.745Z,28.90
2018-03-22T17:47:37.195Z,27.20
2018-03-22T17:50:05.407Z,27.50
2018-03-22T17:52:49.618Z,28.17
2018-03-22T17:55:17.862Z,27.43
2018-03-22T18:00:21.324Z,30.37
2018-03-22T18:02:48.788Z,31.47
2018-03-22T18:05:17.673Z,30.20
2018-03-22T18:07:45.195Z,28.17
2018-03-22T18:10:13.050Z,31.97
2018-03-22T18:15:44.030Z,31.80
2018-03-22T18:18:30.644Z,32.40
2018-03-22T18:20:58.100Z,32.97
2018-03-22T18:23:25.577Z,30.80
2018-03-22T18:25:53.120Z,32.43
2018-03-22T18:28:20.717Z,34.57
2018-03-22T18:30:48.972Z,32.17
2018-03-22T18:36:21.832Z,33.10
2018-03-22T18:38:51.023Z,32.03
2018-03-22T18:41:18.490Z,33.03
2018-03-22T18:43:46.744Z,35.10
2018-03-22T18:46:14.616Z,34.27
2018-03-22T18:51:48.043Z,35.60
2018-03-22T18:57:19.225Z,37.53
2018-03-22T19:00:08.312Z,34.00
2018-03-22T19:02:36.167Z,39.63
2018-03-22T19:05:05.028Z,34.13
2018-03-22T19:07:32.523Z,35.90
2018-03-22T19:13:03.942Z,29.30
2018-03-22T19:15:33.057Z,39.90
2018-03-22T19:18:20.505Z,36.07
2018-03-22T19:20:48.022Z,37.30
2018-03-22T19:26:20.968Z,37.00
2018-03-22T19:28:49.021Z,34.67
2018-03-22T19:52:09.723Z,36.57
2018-03-22T19:57:30.963Z,38.80
2018-03-22T19:59:58.491Z,38.90
2018-03-22T20:14:14.590Z,38.60
2018-03-22T20:19:45.197Z,38.57
2018-03-22T20:22:36.935Z,35.80
2018-03-22T20:34:07.501Z,39.10
2018-03-22T20:36:34.978Z,36.50
2018-03-22T20:42:16.534Z,36.97
2018-03-22T20:44:45.116Z,37.63
2018-03-22T20:47:12.658Z,36.50
2018-03-22T20:49:40.564Z,37.90
2018-03-22T20:52:08.528Z,40.83
2018-03-22T20:54:36.841Z,39.93
2018-03-22T20:57:06.928Z,36.90
2018-03-22T20:59:35.436Z,36.13
2018-03-22T21:02:20.382Z,42.70
2018-03-22T21:04:48.763Z,39.83
2018-03-22T21:07:16.776Z,43.30
2018-03-22T21:09:44.799Z,41.57
2018-03-22T21:12:12.719Z,44.10
2018-03-22T21:14:40.775Z,42.93
2018-03-22T21:17:08.751Z,43.40
2018-03-22T21:19:36.717Z,42.50
2018-03-22T21:22:12.319Z,41.20
2018-03-22T21:24:45.838Z,46.10
2018-03-22T21:27:19.876Z,41.53
2018-03-22T21:32:44.207Z,45.30
2018-03-22T21:41:06.892Z,41.13
2018-03-22T21:43:35.196Z,40.97
2018-03-22T21:46:02.666Z,44.83
2018-03-22T21:48:30.190Z,38.50
2018-03-22T21:51:00.335Z,40.80
2018-03-22T21:53:28.558Z,42.10
2018-03-22T21:58:50.326Z,39.87
2018-03-22T22:01:19.121Z,39.90
2018-03-22T22:03:46.668Z,36.63
2018-03-22T22:06:14.881Z,34.70
2018-03-22T22:08:42.337Z,36.30
2018-03-22T22:11:09.903Z,37.20
2018-03-22T22:13:38.172Z,37.73
2018-03-22T22:16:05.629Z,35.33
2018-03-22T22:18:33.448Z,36.20
2018-03-22T22:21:01.066Z,33.73
2018-03-22T22:23:28.596Z,36.30
2018-03-22T22:25:56.048Z,32.50
2018-03-22T22:28:47.092Z,32.73
2018-03-22T22:31:14.947Z,39.00
2018-03-22T22:33:42.492Z,31.83
2018-03-22T22:36:10.732Z,35.33
2018-03-22T22:38:38.175Z,36.00
2018-03-22T22:41:06.447Z,40.10
2018-03-22T22:46:36.331Z,38.10
2018-03-22T22:49:03.792Z,36.07
2018-03-22T22:51:31.624Z,38.43
2018-03-22T22:53:59.076Z,39.53
2018-03-22T22:56:32.682Z,37.63
2018-03-22T22:59:12.647Z,38.13
2018-03-22T23:01:40.264Z,37.80
2018-03-22T23:04:15.981Z,38.80
2018-03-22T23:06:43.421Z,37.03
2018-03-22T23:09:10.876Z,39.43
2018-03-22T23:11:38.416Z,39.70
2018-03-22T23:14:17.755Z,42.43
2018-03-22T23:16:46.869Z,36.43
2018-03-22T23:19:14.300Z,37.10
2018-03-22T23:21:41.750Z,37.10
2018-03-22T23:24:09.219Z,36.90
2018-03-22T23:26:36.718Z,36.60
2018-03-22T23:31:37.416Z,36.80
2018-03-22T23:34:04.874Z,35.73
2018-03-22T23:36:35.221Z,37.70
2018-03-22T23:39:03.499Z,36.27
2018-03-22T23:41:30.957Z,40.37
2018-03-22T23:43:58.403Z,35.50
2018-03-22T23:46:27.920Z,39.20
2018-03-22T23:48:56.998Z,36.23
2018-03-22T23:51:24.525Z,37.47
2018-03-22T23:53:51.987Z,38.67
2018-03-22T23:56:19.481Z,38.67
2018-03-22T23:58:46.929Z,38.50
